createdAt,value
2022-12-11T00:00:55.612Z,88.12
2022-12-11T00:03:40.230Z,87.94
2022-12-11T00:06:10.143Z,87.89
2022-12-11T00:08:39.038Z,87.85
2022-12-11T00:11:13.048Z,87.64
2022-12-11T00:13:41.230Z,87.53
2022-12-11T00:16:09.615Z,87.85
2022-12-11T00:18:38.287Z,88.15
2022-12-11T00:21:07.781Z,88.06
2022-12-11T00:23:35.957Z,87.83
2022-12-11T00:26:09.498Z,87.79
2022-12-11T00:28:37.144Z,87.86
2022-12-11T00:31:06.973Z,87.89
2022-12-11T00:33:34.771Z,87.91
2022-12-11T00:36:02.654Z,88.09
2022-12-11T00:38:30.334Z,88.05
2022-12-11T00:40:59.223Z,88.02
2022-12-11T00:43:26.863Z,87.82
2022-12-11T00:45:54.564Z,87.82
2022-12-11T00:48:22.342Z,87.95
2022-12-11T00:50:49.970Z,88.04
2022-12-11T00:53:17.583Z,87.75
2022-12-11T00:55:45.208Z,87.77
2022-12-11T00:58:13.536Z,88.15
2022-12-11T01:00:41.913Z,88.18
2022-12-11T01:03:12.974Z,87.96
2022-12-11T01:05:41.231Z,87.50
2022-12-11T01:08:09.031Z,87.26
2022-12-11T01:10:36.903Z,87.13
2022-12-11T01:13:06.653Z,87.34
2022-12-11T01:15:41.551Z,87.61
2022-12-11T01:18:12.024Z,87.53
2022-12-11T01:20:41.329Z,87.54
2022-12-11T01:23:12.391Z,87.63
2022-12-11T01:25:40.675Z,87.65
2022-12-11T01:28:09.211Z,87.62
2022-12-11T01:30:37.443Z,87.87
2022-12-11T01:33:05.214Z,87.87
2022-12-11T01:35:32.813Z,87.98
2022-12-11T01:38:00.491Z,87.95
2022-12-11T01:40:28.287Z,88.05
2022-12-11T01:42:56.118Z,88.03
2022-12-11T01:45:36.499Z,88.05
2022-12-11T01:48:25.025Z,88.14
2022-12-11T01:51:02.820Z,88.15
2022-12-11T01:53:37.067Z,88.33
2022-12-11T01:56:08.004Z,88.53
2022-12-11T01:58:45.626Z,88.52
2022-12-11T02:01:26.076Z,88.26
2022-12-11T02:03:55.648Z,88.24
2022-12-11T02:06:43.826Z,88.20
2022-12-11T02:09:22.417Z,88.38
2022-12-11T02:12:12.713Z,88.41
2022-12-11T02:15:13.307Z,88.13
2022-12-11T02:17:48.703Z,88.15
2022-12-11T02:20:24.460Z,88.42
2022-12-11T02:23:02.450Z,88.44
2022-12-11T02:25:46.039Z,88.38
2022-12-11T02:28:31.906Z,88.36
2022-12-11T02:31:13.398Z,88.25
2022-12-11T02:33:51.682Z,88.25
2022-12-11T02:36:23.639Z,88.08
2022-12-11T02:38:54.629Z,88.06
2022-12-11T02:41:24.693Z,87.97
2022-12-11T02:43:56.164Z,87.86
2022-12-11T02:46:25.291Z,87.74
2022-12-11T02:48:54.164Z,87.84
2022-12-11T02:51:27.397Z,87.92
2022-12-11T02:53:58.394Z,88.15
2022-12-11T02:56:45.285Z,88.22
2022-12-11T02:59:21.064Z,88.20
2022-12-11T03:01:50.457Z,88.41
2022-12-11T03:04:18.404Z,88.19
2022-12-11T03:06:51.327Z,87.96
2022-12-11T03:09:19.073Z,88.07
2022-12-11T03:11:46.692Z,88.15
2022-12-11T03:14:14.796Z,88.15
2022-12-11T03:17:15.158Z,88.13
2022-12-11T03:19:45.413Z,87.93
2022-12-11T03:22:18.803Z,88.23
2022-12-11T03:25:15.541Z,88.06
2022-12-11T03:27:57.288Z,88.27
2022-12-11T03:30:28.549Z,88.16
2022-12-11T03:33:04.002Z,88.41
2022-12-11T03:35:51.231Z,88.13
2022-12-11T03:38:31.576Z,88.00
2022-12-11T03:41:02.188Z,87.87
2022-12-11T03:43:32.029Z,87.83
2022-12-11T03:46:00.977Z,87.53
2022-12-11T03:48:33.804Z,87.73
2022-12-11T03:51:06.121Z,87.70
2022-12-11T03:53:37.903Z,88.27
2022-12-11T03:56:08.571Z,88.20
2022-12-11T03:58:36.398Z,88.17
2022-12-11T04:01:04.385Z,88.31
2022-12-11T04:03:32.233Z,88.31
2022-12-11T04:05:59.814Z,88.48
2022-12-11T04:08:27.931Z,88.37
2022-12-11T04:11:11.656Z,88.58
2022-12-11T04:13:40.690Z,88.69
2022-12-11T04:16:09.461Z,88.67
2022-12-11T04:18:53.176Z,88.66
2022-12-11T04:21:39.667Z,88.55
2022-12-11T04:24:24.559Z,88.44
2022-12-11T04:26:52.151Z,88.53
2022-12-11T04:29:19.756Z,88.62
2022-12-11T04:31:47.429Z,88.55
2022-12-11T04:34:15.018Z,88.56
2022-12-11T04:36:43.141Z,88.39
2022-12-11T04:39:10.911Z,88.40
2022-12-11T04:41:39.000Z,88.52
2022-12-11T04:44:06.703Z,88.60
2022-12-11T04:46:34.792Z,88.79
2022-12-11T04:49:02.564Z,89.05
2022-12-11T04:51:30.184Z,88.58
2022-12-11T04:53:59.358Z,88.14
2022-12-11T04:56:27.226Z,88.34
2022-12-11T04:58:54.856Z,88.41
2022-12-11T05:01:23.309Z,88.33
2022-12-11T05:03:51.188Z,88.62
2022-12-11T05:06:19.014Z,88.78
2022-12-11T05:08:46.641Z,88.86
2022-12-11T05:11:15.907Z,88.72
2022-12-11T05:13:44.547Z,88.72
2022-12-11T05:16:15.517Z,88.81
2022-12-11T05:18:43.676Z,88.89
2022-12-11T05:21:13.694Z,88.90
2022-12-11T05:23:42.364Z,88.94
2022-12-11T05:26:28.106Z,89.12
2022-12-11T05:28:56.257Z,89.15
2022-12-11T05:31:26.215Z,89.30
2022-12-11T05:33:54.392Z,89.25
2022-12-11T05:36:24.197Z,89.31
2022-12-11T05:38:53.379Z,89.19
2022-12-11T05:41:23.453Z,89.35
2022-12-11T05:43:52.052Z,89.46
2022-12-11T05:46:25.524Z,89.52
2022-12-11T05:48:59.782Z,89.51
2022-12-11T05:51:28.702Z,89.45
2022-12-11T05:53:57.720Z,89.47
2022-12-11T05:56:30.334Z,89.53
2022-12-11T05:58:59.519Z,89.63
2022-12-11T06:01:28.912Z,89.61
2022-12-11T06:03:57.403Z,89.54
2022-12-11T06:06:26.606Z,89.54
2022-12-11T06:08:56.422Z,89.93
2022-12-11T06:11:26.779Z,89.80
2022-12-11T06:13:55.337Z,89.90
2022-12-11T06:16:23.441Z,89.44
2022-12-11T06:18:53.677Z,89.17
2022-12-11T06:21:31.943Z,89.09
2022-12-11T06:24:03.085Z,89.08
2022-12-11T06:26:32.019Z,89.20
2022-12-11T06:29:00.137Z,89.22
2022-12-11T06:31:27.937Z,89.15
2022-12-11T06:33:55.677Z,89.17
2022-12-11T06:36:24.270Z,89.18
2022-12-11T06:38:52.647Z,89.20
2022-12-11T06:41:20.395Z,89.16
2022-12-11T06:43:48.061Z,89.24
2022-12-11T06:46:18.863Z,89.33
2022-12-11T06:48:47.441Z,89.20
2022-12-11T06:51:18.276Z,89.45
2022-12-11T06:53:50.936Z,89.61
2022-12-11T06:56:19.818Z,89.67
2022-12-11T06:58:47.439Z,89.43
2022-12-11T07:01:16.960Z,89.28
2022-12-11T07:03:44.842Z,89.16
2022-12-11T07:06:12.828Z,88.91
2022-12-11T07:08:40.984Z,88.91
2022-12-11T07:11:11.452Z,89.17
2022-12-11T07:13:40.235Z,89.43
2022-12-11T07:16:11.080Z,89.31
2022-12-11T07:18:46.386Z,89.30
2022-12-11T07:21:14.905Z,89.38
2022-12-11T07:23:42.548Z,89.65
2022-12-11T07:26:13.768Z,89.85
2022-12-11T07:28:42.407Z,89.93
2022-12-11T07:31:12.983Z,90.03
2022-12-11T07:33:41.382Z,90.22
2022-12-11T07:36:11.935Z,90.17
2022-12-11T07:38:40.223Z,90.32
2022-12-11T07:41:11.485Z,90.16
2022-12-11T07:43:39.329Z,90.11
2022-12-11T07:46:11.734Z,89.85
2022-12-11T08:10:23.931Z,87.02
2022-12-11T08:12:51.492Z,87.48
2022-12-11T08:15:19.019Z,87.47
2022-12-11T08:17:46.554Z,87.77
2022-12-11T08:20:14.356Z,88.27
2022-12-11T08:22:41.871Z,88.76
2022-12-11T08:25:09.810Z,89.12
2022-12-11T08:27:37.598Z,89.24
2022-12-11T08:30:06.040Z,89.19
2022-12-11T08:32:35.130Z,88.98
2022-12-11T08:35:02.754Z,89.18
2022-12-11T08:37:30.352Z,89.21
2022-12-11T08:39:57.854Z,89.25
2022-12-11T08:42:25.374Z,88.51
2022-12-11T08:44:52.925Z,89.04
2022-12-11T08:47:21.085Z,89.18
2022-12-11T08:49:48.643Z,89.14
2022-12-11T08:52:16.530Z,89.24
2022-12-11T08:54:44.134Z,89.05
2022-12-11T08:57:11.837Z,88.64
2022-12-11T08:59:41.549Z,88.82
2022-12-11T09:02:13.084Z,89.10
2022-12-11T09:04:40.892Z,89.04
2022-12-11T09:07:08.446Z,89.17
2022-12-11T09:09:36.144Z,88.90
2022-12-11T09:12:04.609Z,88.83
2022-12-11T09:14:32.155Z,88.72
2022-12-11T09:16:59.706Z,88.62
2022-12-11T09:19:32.111Z,88.75
2022-12-11T09:22:00.035Z,88.92
2022-12-11T09:24:27.573Z,88.78
2022-12-11T09:26:55.109Z,89.15
2022-12-11T09:29:22.691Z,89.08
2022-12-11T09:31:50.369Z,89.32
2022-12-11T09:34:17.903Z,89.04
2022-12-11T09:36:45.622Z,89.32
2022-12-11T09:39:15.041Z,89.30
2022-12-11T09:42:04.665Z,89.88
2022-12-11T09:45:01.371Z,89.65
2022-12-11T09:47:35.997Z,90.00
2022-12-11T09:50:13.251Z,90.07
2022-12-11T09:52:43.793Z,89.95
2022-12-11T09:55:33.321Z,89.91
2022-12-11T09:58:18.125Z,90.04
2022-12-11T10:00:49.416Z,90.00
2022-12-11T10:03:46.854Z,89.67
2022-12-11T10:06:33.245Z,89.74
2022-12-11T10:09:18.343Z,90.16
2022-12-11T10:12:01.893Z,89.93
2022-12-11T10:14:45.674Z,89.89
2022-12-11T10:17:25.331Z,89.67
2022-12-11T10:19:54.829Z,90.11
2022-12-11T10:22:26.099Z,90.12
2022-12-11T10:25:10.524Z,90.18
2022-12-11T10:27:40.683Z,90.21
2022-12-11T10:30:16.951Z,90.21
2022-12-11T10:32:54.662Z,90.28
2022-12-11T10:35:37.027Z,90.27
2022-12-11T10:38:29.399Z,90.30
2022-12-11T10:41:09.137Z,90.31
2022-12-11T10:43:43.261Z,90.37
2022-12-11T10:46:19.127Z,90.29
2022-12-11T10:48:55.757Z,90.25
2022-12-11T10:51:39.588Z,90.21
2022-12-11T10:54:18.198Z,90.48
2022-12-11T10:56:48.166Z,90.65
2022-12-11T10:59:29.478Z,90.50
2022-12-11T11:01:57.843Z,90.50
2022-12-11T11:04:33.244Z,90.73
2022-12-11T11:07:03.287Z,90.57
2022-12-11T11:09:34.773Z,90.65
2022-12-11T11:12:07.845Z,90.71
2022-12-11T11:14:35.862Z,90.69
2022-12-11T11:17:03.390Z,90.63
2022-12-11T11:19:33.896Z,90.55
2022-12-11T11:22:14.046Z,90.55
2022-12-11T11:24:46.089Z,90.91
2022-12-11T11:27:42.451Z,91.00
2022-12-11T11:30:27.951Z,91.12
2022-12-11T11:33:00.684Z,91.04
2022-12-11T11:35:30.401Z,90.89
2022-12-11T11:38:21.413Z,91.52
2022-12-11T11:41:15.381Z,91.36
2022-12-11T11:43:50.656Z,91.68
2022-12-11T11:46:40.537Z,91.74
2022-12-11T11:49:28.065Z,91.85
2022-12-11T11:52:21.662Z,91.55
2022-12-11T11:54:56.905Z,91.47
2022-12-11T11:57:35.545Z,91.14
2022-12-11T12:00:33.393Z,91.16
2022-12-11T12:03:09.491Z,91.25
2022-12-11T12:05:54.022Z,91.15
2022-12-11T12:08:37.553Z,91.38
2022-12-11T12:11:09.476Z,91.12
2022-12-11T12:14:28.836Z,91.27
2022-12-11T12:17:12.615Z,91.15
2022-12-11T12:19:54.537Z,91.30
2022-12-11T12:22:54.129Z,91.21
2022-12-11T12:25:53.733Z,91.26
2022-12-11T12:28:40.032Z,91.02
2022-12-11T12:31:33.663Z,91.54
2022-12-11T12:34:22.814Z,92.00
2022-12-11T12:37:07.600Z,92.11
2022-12-11T12:39:54.353Z,92.07
2022-12-11T12:42:45.423Z,91.97
2022-12-11T12:45:16.009Z,92.17
2022-12-11T12:47:51.978Z,91.90
2022-12-11T12:50:24.931Z,92.28
2022-12-11T12:52:54.133Z,92.33
2022-12-11T12:55:31.622Z,92.23
2022-12-11T12:58:05.180Z,92.32
2022-12-11T13:00:41.563Z,92.00
2022-12-11T13:03:30.260Z,92.23
2022-12-11T13:06:07.926Z,92.39
2022-12-11T13:08:43.574Z,92.56
2022-12-11T13:11:13.647Z,92.65
2022-12-11T13:13:44.573Z,92.51
2022-12-11T13:16:15.113Z,92.72
2022-12-11T13:18:49.007Z,92.53
2022-12-11T13:21:32.672Z,92.67
2022-12-11T13:24:24.161Z,92.73
2022-12-11T13:26:51.749Z,92.62
2022-12-11T13:29:36.701Z,92.66
2022-12-11T13:32:10.416Z,92.94
2022-12-11T13:34:42.159Z,92.79
2022-12-11T13:37:26.034Z,93.13
2022-12-11T13:39:54.341Z,93.17
2022-12-11T13:42:29.514Z,93.46
2022-12-11T13:44:57.548Z,93.26
2022-12-11T13:47:26.388Z,93.16
2022-12-11T13:49:56.281Z,92.93
2022-12-11T13:52:27.553Z,93.10
2022-12-11T13:54:58.987Z,93.13
2022-12-11T13:57:28.605Z,93.09
2022-12-11T13:59:58.412Z,93.50
2022-12-11T14:02:34.550Z,93.31
2022-12-11T14:05:06.731Z,93.22
2022-12-11T14:07:38.279Z,93.35
2022-12-11T14:10:14.068Z,93.54
2022-12-11T14:13:00.857Z,93.56
2022-12-11T14:15:31.703Z,93.88
2022-12-11T14:18:00.686Z,93.95
2022-12-11T14:20:31.197Z,94.11
2022-12-11T14:23:19.970Z,94.21
2022-12-11T14:25:58.572Z,93.89
2022-12-11T14:28:28.418Z,93.94
2022-12-11T14:31:00.677Z,94.19
2022-12-11T14:33:39.013Z,94.01
2022-12-11T14:36:08.167Z,93.97
2022-12-11T14:38:43.119Z,94.00
2022-12-11T14:41:18.648Z,94.17
2022-12-11T14:43:51.437Z,94.05
2022-12-11T14:46:42.823Z,94.25
2022-12-11T14:49:26.330Z,94.06
2022-12-11T14:51:57.552Z,94.28
2022-12-11T14:54:43.147Z,94.23
2022-12-11T14:57:20.039Z,94.48
2022-12-11T14:59:51.283Z,94.25
2022-12-11T15:02:32.122Z,94.04
2022-12-11T15:05:10.997Z,94.29
2022-12-11T15:07:39.826Z,94.32
2022-12-11T15:10:20.907Z,94.29
2022-12-11T15:12:48.992Z,94.14
2022-12-11T15:15:18.317Z,94.06
2022-12-11T15:17:52.670Z,94.12
2022-12-11T15:20:25.108Z,94.26
2022-12-11T15:22:53.798Z,94.12
2022-12-11T15:25:24.696Z,93.97
2022-12-11T15:27:55.079Z,94.09
2022-12-11T15:30:29.081Z,94.07
2022-12-11T15:33:21.930Z,93.99
2022-12-11T15:36:27.730Z,94.15
2022-12-11T15:38:55.334Z,94.13
2022-12-11T15:41:24.758Z,94.17
2022-12-11T15:43:58.993Z,94.18
2022-12-11T15:46:27.257Z,93.89
2022-12-11T15:48:56.850Z,93.92
2022-12-11T15:51:25.254Z,93.90
2022-12-11T15:53:52.961Z,94.03
2022-12-11T15:56:20.711Z,93.87
2022-12-11T15:58:49.315Z,93.94
2022-12-11T16:01:17.601Z,94.12
2022-12-11T16:03:45.701Z,94.07
2022-12-11T16:06:13.980Z,93.86
2022-12-11T16:08:41.494Z,94.05
2022-12-11T16:11:13.386Z,93.96
2022-12-11T16:13:40.964Z,94.04
2022-12-11T16:16:08.558Z,94.00
2022-12-11T16:18:36.135Z,94.00
2022-12-11T16:21:06.429Z,94.15
2022-12-11T16:23:34.109Z,94.12
2022-12-11T16:26:06.888Z,94.20
2022-12-11T16:28:34.697Z,94.28
2022-12-11T16:31:02.431Z,94.22
2022-12-11T16:33:30.119Z,94.22
2022-12-11T16:35:57.715Z,94.36
2022-12-11T16:38:25.245Z,94.42
2022-12-11T16:41:00.931Z,94.23
2022-12-11T16:43:28.435Z,94.14
2022-12-11T16:45:56.396Z,94.03
2022-12-11T16:48:24.332Z,94.21
2022-12-11T16:50:55.261Z,94.17
2022-12-11T16:53:23.218Z,94.24
2022-12-11T16:55:51.427Z,94.12
2022-12-11T16:58:20.127Z,94.11
2022-12-11T17:00:48.560Z,93.97
2022-12-11T17:03:16.315Z,93.91
2022-12-11T17:05:43.941Z,94.03
2022-12-11T17:08:13.394Z,94.16
2022-12-11T17:10:42.278Z,94.07
2022-12-11T17:13:09.802Z,94.20
2022-12-11T17:15:41.777Z,94.17
2022-12-11T17:18:10.481Z,94.32
2022-12-11T17:20:43.260Z,94.54
2022-12-11T17:23:12.295Z,94.30
2022-12-11T17:25:44.952Z,94.34
2022-12-11T17:28:13.371Z,94.37
2022-12-11T17:30:43.514Z,94.29
2022-12-11T17:33:12.169Z,94.38
2022-12-11T17:35:39.750Z,94.33
2022-12-11T17:38:07.654Z,94.39
2022-12-11T17:40:35.370Z,94.53
2022-12-11T17:43:06.297Z,94.30
2022-12-11T17:45:33.869Z,94.24
2022-12-11T17:48:01.485Z,94.44
2022-12-11T17:50:29.041Z,94.40
2022-12-11T17:52:57.559Z,94.36
2022-12-11T17:55:25.158Z,94.28
2022-12-11T17:57:52.910Z,94.46
2022-12-11T18:00:20.435Z,94.45
2022-12-11T18:02:47.938Z,94.21
2022-12-11T18:05:16.114Z,94.40
2022-12-11T18:07:43.757Z,94.18
2022-12-11T18:10:11.429Z,94.14
2022-12-11T18:12:39.280Z,94.23
2022-12-11T18:15:07.575Z,94.14
2022-12-11T18:17:35.356Z,94.03
2022-12-11T18:20:03.680Z,93.96
2022-12-11T18:22:31.271Z,93.89
2022-12-11T18:24:58.823Z,93.67
2022-12-11T18:27:26.599Z,93.95
2022-12-11T18:29:55.499Z,93.68
2022-12-11T18:32:24.300Z,93.79
2022-12-11T18:34:52.352Z,93.96
2022-12-11T18:37:24.728Z,93.46
2022-12-11T18:39:55.322Z,93.32
2022-12-11T18:42:38.215Z,93.49
2022-12-11T18:45:06.984Z,93.46
2022-12-11T18:47:34.594Z,93.70
2022-12-11T18:50:07.461Z,93.44
2022-12-11T18:52:35.827Z,93.42
2022-12-11T18:55:04.488Z,93.52
2022-12-11T18:57:32.363Z,93.46
2022-12-11T19:00:07.378Z,93.53
2022-12-11T19:02:35.531Z,93.51
2022-12-11T19:05:03.640Z,93.49
2022-12-11T19:07:31.518Z,93.39
2022-12-11T19:09:59.126Z,93.34
2022-12-11T19:12:26.777Z,93.43
2022-12-11T19:14:54.506Z,93.21
2022-12-11T19:17:22.052Z,93.40
2022-12-11T19:19:50.245Z,93.39
2022-12-11T19:22:17.760Z,93.48
2022-12-11T19:24:45.359Z,93.16
2022-12-11T19:27:13.879Z,93.51
2022-12-11T19:29:41.694Z,93.17
2022-12-11T19:32:09.658Z,93.45
2022-12-11T19:34:38.390Z,93.47
2022-12-11T19:37:05.904Z,93.44
2022-12-11T19:39:33.609Z,93.53
2022-12-11T19:42:01.333Z,93.51
2022-12-11T19:44:28.864Z,93.28
2022-12-11T19:46:56.818Z,93.29
2022-12-11T19:49:24.478Z,93.33
2022-12-11T19:51:52.002Z,93.47
2022-12-11T19:54:19.748Z,93.13
2022-12-11T19:56:47.600Z,93.11
2022-12-11T19:59:16.721Z,93.19
2022-12-11T20:01:47.837Z,93.46
2022-12-11T20:04:17.626Z,93.10
2022-12-11T20:06:46.711Z,93.48
2022-12-11T20:09:14.772Z,93.40
2022-12-11T20:11:44.382Z,93.43
2022-12-11T20:14:22.806Z,93.30
2022-12-11T20:17:10.976Z,93.17
2022-12-11T20:19:40.081Z,93.35
2022-12-11T20:22:09.167Z,93.37
2022-12-11T20:24:37.507Z,93.39
2022-12-11T20:27:05.252Z,93.47
2022-12-11T20:29:32.842Z,93.34
2022-12-11T20:32:00.688Z,93.62
2022-12-11T20:34:28.307Z,93.47
2022-12-11T20:36:56.360Z,93.71
2022-12-11T20:39:25.286Z,93.76
2022-12-11T20:41:52.816Z,93.74
2022-12-11T20:44:20.656Z,93.83
2022-12-11T20:46:48.190Z,93.65
2022-12-11T20:49:16.464Z,93.85
2022-12-11T20:51:44.012Z,93.80
2022-12-11T20:54:11.904Z,93.67
2022-12-11T20:56:39.561Z,93.75
2022-12-11T20:59:07.112Z,93.93
2022-12-11T21:01:34.914Z,93.83
2022-12-11T21:04:02.972Z,93.81
2022-12-11T21:06:33.309Z,93.76
2022-12-11T21:09:05.026Z,93.60
2022-12-11T21:11:32.649Z,93.78
2022-12-11T21:14:00.270Z,93.61
2022-12-11T21:16:28.774Z,93.95
2022-12-11T21:18:57.452Z,93.87
2022-12-11T21:21:26.525Z,94.04
2022-12-11T21:23:54.610Z,94.20
2022-12-11T21:26:22.185Z,94.35
2022-12-11T21:28:50.609Z,94.57
2022-12-11T21:31:19.650Z,94.55
2022-12-11T21:33:47.913Z,94.73
2022-12-11T21:36:16.584Z,94.76
2022-12-11T21:38:45.087Z,94.99
2022-12-11T21:41:15.821Z,94.93
2022-12-11T21:44:14.537Z,94.93
2022-12-11T21:46:33.181Z,95.16
2022-12-11T21:49:01.049Z,94.99
2022-12-11T21:51:37.721Z,95.02
2022-12-11T21:54:07.496Z,95.14
2022-12-11T21:56:35.029Z,95.23
2022-12-11T21:59:02.615Z,95.55
2022-12-11T22:01:34.907Z,95.43
2022-12-11T22:04:04.837Z,95.55
2022-12-11T22:06:32.979Z,95.53
2022-12-11T22:09:00.736Z,95.53
2022-12-11T22:11:31.156Z,95.73
2022-12-11T22:13:59.266Z,95.61
2022-12-11T22:16:27.624Z,95.81
2022-12-11T22:18:55.162Z,95.86
2022-12-11T22:21:22.983Z,95.85
2022-12-11T22:23:50.724Z,95.95
2022-12-11T22:26:21.357Z,96.11
2022-12-11T22:28:50.303Z,96.03
2022-12-11T22:31:21.228Z,95.88
2022-12-11T22:33:50.667Z,95.94
2022-12-11T22:36:18.882Z,96.11
2022-12-11T22:38:47.229Z,96.08
2022-12-11T22:41:22.647Z,96.17
2022-12-11T22:43:50.871Z,96.20
2022-12-11T22:46:20.563Z,96.16
2022-12-11T22:48:48.102Z,96.21
2022-12-11T22:51:16.145Z,96.02
2022-12-11T22:53:43.716Z,96.11
2022-12-11T22:56:12.775Z,96.23
2022-12-11T22:58:40.868Z,96.30
2022-12-11T23:01:14.630Z,96.38
2022-12-11T23:03:42.371Z,96.31
2022-12-11T23:06:12.548Z,96.61
2022-12-11T23:08:41.538Z,96.76
2022-12-11T23:11:15.329Z,96.76
2022-12-11T23:13:43.554Z,96.76
2022-12-11T23:16:12.192Z,97.05
2022-12-11T23:18:39.986Z,97.07
2022-12-11T23:21:08.440Z,97.08
2022-12-11T23:23:36.339Z,97.19
2022-12-11T23:26:05.970Z,97.18
2022-12-11T23:28:34.011Z,97.05
2022-12-11T23:31:02.011Z,96.99
2022-12-11T23:33:29.588Z,97.01
2022-12-11T23:35:58.108Z,97.01
2022-12-11T23:38:26.345Z,96.99
2022-12-11T23:40:54.651Z,96.99
2022-12-11T23:43:22.428Z,96.93
2022-12-11T23:45:50.075Z,97.08
2022-12-11T23:48:18.393Z,97.23
2022-12-11T23:50:46.590Z,97.11
2022-12-11T23:53:14.141Z,97.28
2022-12-11T23:55:44.013Z,97.43
2022-12-11T23:58:11.815Z,97.82
